sensor_id;sensor_type;location;lat;lon;timestamp;P1;durP1;ratioP1;P2;durP2;ratioP2
5129;SDS011;2583;50.946;6.954;2023-10-08T00:00:05;3.83;;;3.23;;
5129;SDS011;2583;50.946;6.954;2023-10-08T00:02:50;3.10;;;2.90;;
5129;SDS011;2583;50.946;6.954;2023-10-08T00:05:18;3.80;;;3.50;;
5129;SDS011;2583;50.946;6.954;2023-10-08T00:07:48;4.00;;;3.50;;
5129;SDS011;2583;50.946;6.954;2023-10-08T00:10:16;4.30;;;3.63;;
5129;SDS011;2583;50.946;6.954;2023-10-08T00:12:44;6.83;;;3.60;;
5129;SDS011;2583;50.946;6.954;2023-10-08T00:15:13;7.77;;;3.90;;
5129;SDS011;2583;50.946;6.954;2023-10-08T00:17:40;8.43;;;4.20;;
5129;SDS011;2583;50.946;6.954;2023-10-08T00:20:07;3.53;;;3.23;;
5129;SDS011;2583;50.946;6.954;2023-10-08T00:22:42;5.73;;;3.70;;
5129;SDS011;2583;50.946;6.954;2023-10-08T00:25:09;5.00;;;3.60;;
5129;SDS011;2583;50.946;6.954;2023-10-08T00:27:38;3.77;;;3.20;;
5129;SDS011;2583;50.946;6.954;2023-10-08T00:30:05;5.70;;;3.43;;
5129;SDS011;2583;50.946;6.954;2023-10-08T00:32:44;3.33;;;3.03;;
5129;SDS011;2583;50.946;6.954;2023-10-08T00:35:11;4.20;;;3.50;;
5129;SDS011;2583;50.946;6.954;2023-10-08T00:37:40;6.33;;;4.17;;
5129;SDS011;2583;50.946;6.954;2023-10-08T00:40:07;4.53;;;3.20;;
5129;SDS011;2583;50.946;6.954;2023-10-08T00:42:39;4.23;;;3.13;;
5129;SDS011;2583;50.946;6.954;2023-10-08T00:45:12;4.20;;;3.30;;
5129;SDS011;2583;50.946;6.954;2023-10-08T00:47:42;3.50;;;3.20;;
5129;SDS011;2583;50.946;6.954;2023-10-08T00:50:10;6.77;;;3.70;;
5129;SDS011;2583;50.946;6.954;2023-10-08T00:52:47;5.70;;;3.60;;
5129;SDS011;2583;50.946;6.954;2023-10-08T00:55:26;3.60;;;3.30;;
5129;SDS011;2583;50.946;6.954;2023-10-08T00:57:57;4.83;;;3.27;;
5129;SDS011;2583;50.946;6.954;2023-10-08T01:00:25;5.20;;;3.60;;
5129;SDS011;2583;50.946;6.954;2023-10-08T01:02:58;4.70;;;3.50;;
5129;SDS011;2583;50.946;6.954;2023-10-08T01:05:28;4.60;;;3.33;;
5129;SDS011;2583;50.946;6.954;2023-10-08T01:08:09;4.40;;;2.90;;
5129;SDS011;2583;50.946;6.954;2023-10-08T01:10:40;4.50;;;3.23;;
5129;SDS011;2583;50.946;6.954;2023-10-08T01:13:10;6.43;;;3.60;;
5129;SDS011;2583;50.946;6.954;2023-10-08T01:15:45;4.10;;;3.37;;
5129;SDS011;2583;50.946;6.954;2023-10-08T01:18:18;12.83;;;3.90;;
5129;SDS011;2583;50.946;6.954;2023-10-08T01:20:57;5.77;;;3.93;;
5129;SDS011;2583;50.946;6.954;2023-10-08T01:23:30;4.60;;;2.80;;
5129;SDS011;2583;50.946;6.954;2023-10-08T01:25:58;4.63;;;3.13;;
5129;SDS011;2583;50.946;6.954;2023-10-08T01:28:37;6.00;;;4.10;;
5129;SDS011;2583;50.946;6.954;2023-10-08T01:31:04;3.87;;;3.30;;
5129;SDS011;2583;50.946;6.954;2023-10-08T01:33:33;6.73;;;3.53;;
5129;SDS011;2583;50.946;6.954;2023-10-08T01:36:03;4.30;;;3.07;;
5129;SDS011;2583;50.946;6.954;2023-10-08T01:38:31;4.73;;;3.97;;
5129;SDS011;2583;50.946;6.954;2023-10-08T01:41:01;4.90;;;3.27;;
5129;SDS011;2583;50.946;6.954;2023-10-08T01:43:45;4.50;;;3.87;;
5129;SDS011;2583;50.946;6.954;2023-10-08T01:46:12;5.90;;;3.27;;
5129;SDS011;2583;50.946;6.954;2023-10-08T01:48:39;11.13;;;4.17;;
5129;SDS011;2583;50.946;6.954;2023-10-08T01:51:08;3.10;;;2.80;;
5129;SDS011;2583;50.946;6.954;2023-10-08T01:53:38;5.80;;;3.90;;
5129;SDS011;2583;50.946;6.954;2023-10-08T01:56:05;6.60;;;3.73;;
5129;SDS011;2583;50.946;6.954;2023-10-08T01:58:32;6.43;;;3.40;;
5129;SDS011;2583;50.946;6.954;2023-10-08T02:01:00;5.57;;;3.43;;
5129;SDS011;2583;50.946;6.954;2023-10-08T02:03:27;3.93;;;3.53;;
5129;SDS011;2583;50.946;6.954;2023-10-08T02:05:54;4.67;;;2.97;;
5129;SDS011;2583;50.946;6.954;2023-10-08T02:08:25;4.60;;;3.30;;
5129;SDS011;2583;50.946;6.954;2023-10-08T02:10:58;6.57;;;4.17;;
5129;SDS011;2583;50.946;6.954;2023-10-08T02:13:25;3.70;;;3.33;;
5129;SDS011;2583;50.946;6.954;2023-10-08T02:15:52;4.60;;;3.40;;
5129;SDS011;2583;50.946;6.954;2023-10-08T02:18:20;3.47;;;3.17;;
5129;SDS011;2583;50.946;6.954;2023-10-08T02:20:50;5.30;;;3.50;;
5129;SDS011;2583;50.946;6.954;2023-10-08T02:23:17;4.40;;;4.00;;
5129;SDS011;2583;50.946;6.954;2023-10-08T02:25:44;4.73;;;3.80;;
5129;SDS011;2583;50.946;6.954;2023-10-08T02:28:11;4.40;;;3.60;;
5129;SDS011;2583;50.946;6.954;2023-10-08T02:30:46;6.00;;;4.07;;
5129;SDS011;2583;50.946;6.954;2023-10-08T02:33:13;5.33;;;3.80;;
5129;SDS011;2583;50.946;6.954;2023-10-08T02:35:41;3.87;;;3.40;;
5129;SDS011;2583;50.946;6.954;2023-10-08T02:38:10;7.50;;;2.90;;
5129;SDS011;2583;50.946;6.954;2023-10-08T02:40:39;4.20;;;3.03;;
5129;SDS011;2583;50.946;6.954;2023-10-08T02:43:14;6.93;;;3.87;;
5129;SDS011;2583;50.946;6.954;2023-10-08T02:45:42;5.80;;;3.70;;
5129;SDS011;2583;50.946;6.954;2023-10-08T02:48:14;5.23;;;3.40;;
5129;SDS011;2583;50.946;6.954;2023-10-08T02:50:43;4.60;;;3.57;;
5129;SDS011;2583;50.946;6.954;2023-10-08T02:53:13;6.50;;;4.90;;
5129;SDS011;2583;50.946;6.954;2023-10-08T02:55:47;5.60;;;4.03;;
5129;SDS011;2583;50.946;6.954;2023-10-08T02:58:14;6.00;;;3.63;;
5129;SDS011;2583;50.946;6.954;2023-10-08T03:00:42;4.00;;;3.50;;
5129;SDS011;2583;50.946;6.954;2023-10-08T03:03:09;5.90;;;3.90;;
5129;SDS011;2583;50.946;6.954;2023-10-08T03:05:45;7.53;;;4.20;;
5129;SDS011;2583;50.946;6.954;2023-10-08T03:08:13;5.20;;;3.30;;
5129;SDS011;2583;50.946;6.954;2023-10-08T03:10:46;10.03;;;3.40;;
5129;SDS011;2583;50.946;6.954;2023-10-08T03:13:21;7.50;;;3.30;;
5129;SDS011;2583;50.946;6.954;2023-10-08T03:15:49;5.60;;;3.83;;
5129;SDS011;2583;50.946;6.954;2023-10-08T03:18:28;6.30;;;3.90;;
5129;SDS011;2583;50.946;6.954;2023-10-08T03:21:10;4.33;;;3.43;;
5129;SDS011;2583;50.946;6.954;2023-10-08T03:23:50;6.77;;;4.03;;
5129;SDS011;2583;50.946;6.954;2023-10-08T03:26:18;7.13;;;4.23;;
5129;SDS011;2583;50.946;6.954;2023-10-08T03:28:57;5.17;;;3.80;;
5129;SDS011;2583;50.946;6.954;2023-10-08T03:31:25;8.67;;;3.83;;
5129;SDS011;2583;50.946;6.954;2023-10-08T03:34:11;5.33;;;3.80;;
5129;SDS011;2583;50.946;6.954;2023-10-08T03:36:41;5.23;;;4.20;;
5129;SDS011;2583;50.946;6.954;2023-10-08T03:39:12;6.97;;;3.63;;
5129;SDS011;2583;50.946;6.954;2023-10-08T03:41:42;7.90;;;3.60;;
5129;SDS011;2583;50.946;6.954;2023-10-08T03:44:17;4.07;;;3.40;;
5129;SDS011;2583;50.946;6.954;2023-10-08T03:46:47;6.87;;;4.07;;
5129;SDS011;2583;50.946;6.954;2023-10-08T03:49:14;9.33;;;3.80;;
5129;SDS011;2583;50.946;6.954;2023-10-08T03:51:47;6.00;;;3.67;;
5129;SDS011;2583;50.946;6.954;2023-10-08T03:54:18;6.40;;;3.47;;
5129;SDS011;2583;50.946;6.954;2023-10-08T03:57:01;8.30;;;4.20;;
5129;SDS011;2583;50.946;6.954;2023-10-08T03:59:39;5.20;;;3.80;;
5129;SDS011;2583;50.946;6.954;2023-10-08T04:02:07;4.93;;;3.60;;
5129;SDS011;2583;50.946;6.954;2023-10-08T04:04:41;6.40;;;3.80;;
5129;SDS011;2583;50.946;6.954;2023-10-08T04:07:18;5.17;;;4.20;;
5129;SDS011;2583;50.946;6.954;2023-10-08T04:10:08;5.43;;;3.70;;
5129;SDS011;2583;50.946;6.954;2023-10-08T04:12:35;7.43;;;4.27;;
5129;SDS011;2583;50.946;6.954;2023-10-08T04:15:10;7.80;;;3.97;;
5129;SDS011;2583;50.946;6.954;2023-10-08T04:17:43;4.90;;;4.03;;
5129;SDS011;2583;50.946;6.954;2023-10-08T04:20:14;7.67;;;4.43;;
5129;SDS011;2583;50.946;6.954;2023-10-08T04:23:05;6.77;;;4.57;;
5129;SDS011;2583;50.946;6.954;2023-10-08T04:25:40;5.60;;;3.93;;
5129;SDS011;2583;50.946;6.954;2023-10-08T04:28:10;5.90;;;3.20;;
5129;SDS011;2583;50.946;6.954;2023-10-08T04:30:40;9.83;;;4.33;;
5129;SDS011;2583;50.946;6.954;2023-10-08T04:33:07;4.20;;;3.37;;
5129;SDS011;2583;50.946;6.954;2023-10-08T04:35:40;4.60;;;3.83;;
5129;SDS011;2583;50.946;6.954;2023-10-08T04:38:15;7.13;;;3.93;;
5129;SDS011;2583;50.946;6.954;2023-10-08T04:40:48;5.47;;;3.50;;
5129;SDS011;2583;50.946;6.954;2023-10-08T04:43:18;6.93;;;4.40;;
5129;SDS011;2583;50.946;6.954;2023-10-08T04:45:57;6.40;;;3.67;;
5129;SDS011;2583;50.946;6.954;2023-10-08T04:48:24;5.13;;;4.13;;
5129;SDS011;2583;50.946;6.954;2023-10-08T04:50:53;8.20;;;4.43;;
5129;SDS011;2583;50.946;6.954;2023-10-08T04:53:27;10.50;;;4.23;;
5129;SDS011;2583;50.946;6.954;2023-10-08T04:56:07;5.27;;;4.53;;
5129;SDS011;2583;50.946;6.954;2023-10-08T04:58:44;5.07;;;3.33;;
5129;SDS011;2583;50.946;6.954;2023-10-08T05:01:16;6.53;;;4.33;;
5129;SDS011;2583;50.946;6.954;2023-10-08T05:03:45;6.30;;;3.90;;
5129;SDS011;2583;50.946;6.954;2023-10-08T05:06:34;7.30;;;3.67;;
5129;SDS011;2583;50.946;6.954;2023-10-08T05:09:11;7.63;;;3.87;;
5129;SDS011;2583;50.946;6.954;2023-10-08T05:11:45;4.33;;;3.93;;
5129;SDS011;2583;50.946;6.954;2023-10-08T05:14:33;6.90;;;4.13;;
5129;SDS011;2583;50.946;6.954;2023-10-08T05:17:05;6.23;;;4.10;;
5129;SDS011;2583;50.946;6.954;2023-10-08T05:19:37;4.90;;;4.40;;
5129;SDS011;2583;50.946;6.954;2023-10-08T05:22:07;5.23;;;3.90;;
5129;SDS011;2583;50.946;6.954;2023-10-08T05:24:53;6.50;;;4.63;;
5129;SDS011;2583;50.946;6.954;2023-10-08T05:27:56;9.43;;;4.63;;
5129;SDS011;2583;50.946;6.954;2023-10-08T05:30:25;8.17;;;4.10;;
5129;SDS011;2583;50.946;6.954;2023-10-08T05:33:05;6.50;;;4.50;;
5129;SDS011;2583;50.946;6.954;2023-10-08T05:35:35;4.63;;;4.00;;
5129;SDS011;2583;50.946;6.954;2023-10-08T05:38:13;5.00;;;3.90;;
5129;SDS011;2583;50.946;6.954;2023-10-08T05:40:57;6.57;;;4.00;;
5129;SDS011;2583;50.946;6.954;2023-10-08T05:43:34;4.27;;;3.73;;
5129;SDS011;2583;50.946;6.954;2023-10-08T05:46:08;5.00;;;4.50;;
5129;SDS011;2583;50.946;6.954;2023-10-08T05:48:50;8.53;;;4.47;;
5129;SDS011;2583;50.946;6.954;2023-10-08T05:51:29;8.50;;;4.87;;
5129;SDS011;2583;50.946;6.954;2023-10-08T05:54:32;4.43;;;3.93;;
5129;SDS011;2583;50.946;6.954;2023-10-08T05:57:00;6.13;;;4.40;;
5129;SDS011;2583;50.946;6.954;2023-10-08T05:59:43;7.17;;;4.50;;
5129;SDS011;2583;50.946;6.954;2023-10-08T06:02:26;4.40;;;4.00;;
5129;SDS011;2583;50.946;6.954;2023-10-08T06:05:02;4.67;;;4.23;;
5129;SDS011;2583;50.946;6.954;2023-10-08T06:07:40;8.00;;;4.27;;
5129;SDS011;2583;50.946;6.954;2023-10-08T06:10:20;7.97;;;4.77;;
5129;SDS011;2583;50.946;6.954;2023-10-08T06:15:42;9.30;;;4.47;;
5129;SDS011;2583;50.946;6.954;2023-10-08T06:18:21;5.50;;;4.13;;
5129;SDS011;2583;50.946;6.954;2023-10-08T06:20:59;5.43;;;3.90;;
5129;SDS011;2583;50.946;6.954;2023-10-08T06:23:27;5.37;;;3.37;;
5129;SDS011;2583;50.946;6.954;2023-10-08T06:25:58;9.13;;;3.87;;
5129;SDS011;2583;50.946;6.954;2023-10-08T06:28:31;8.80;;;3.97;;
5129;SDS011;2583;50.946;6.954;2023-10-08T06:31:01;5.40;;;4.10;;
5129;SDS011;2583;50.946;6.954;2023-10-08T06:33:33;5.67;;;3.97;;
5129;SDS011;2583;50.946;6.954;2023-10-08T06:36:00;7.73;;;4.20;;
5129;SDS011;2583;50.946;6.954;2023-10-08T06:38:29;8.60;;;4.00;;
5129;SDS011;2583;50.946;6.954;2023-10-08T06:40:59;9.73;;;4.47;;
5129;SDS011;2583;50.946;6.954;2023-10-08T06:43:27;6.23;;;4.20;;
5129;SDS011;2583;50.946;6.954;2023-10-08T06:45:54;6.00;;;4.10;;
5129;SDS011;2583;50.946;6.954;2023-10-08T06:48:24;4.20;;;3.63;;
5129;SDS011;2583;50.946;6.954;2023-10-08T06:50:52;5.83;;;4.63;;
5129;SDS011;2583;50.946;6.954;2023-10-08T06:53:33;8.97;;;4.37;;
5129;SDS011;2583;50.946;6.954;2023-10-08T06:56:01;5.83;;;3.80;;
5129;SDS011;2583;50.946;6.954;2023-10-08T06:58:31;5.10;;;3.93;;
5129;SDS011;2583;50.946;6.954;2023-10-08T07:00:58;6.90;;;4.90;;
5129;SDS011;2583;50.946;6.954;2023-10-08T07:03:31;6.97;;;4.47;;
5129;SDS011;2583;50.946;6.954;2023-10-08T07:06:00;5.73;;;4.47;;
5129;SDS011;2583;50.946;6.954;2023-10-08T07:08:30;5.90;;;3.77;;
5129;SDS011;2583;50.946;6.954;2023-10-08T07:10:59;4.40;;;3.90;;
5129;SDS011;2583;50.946;6.954;2023-10-08T07:13:27;5.00;;;4.00;;
5129;SDS011;2583;50.946;6.954;2023-10-08T07:15:55;6.00;;;4.30;;
5129;SDS011;2583;50.946;6.954;2023-10-08T07:18:23;5.27;;;4.10;;
5129;SDS011;2583;50.946;6.954;2023-10-08T07:20:54;9.67;;;4.70;;
5129;SDS011;2583;50.946;6.954;2023-10-08T07:23:27;11.13;;;4.30;;
5129;SDS011;2583;50.946;6.954;2023-10-08T07:26:01;7.53;;;4.27;;
5129;SDS011;2583;50.946;6.954;2023-10-08T07:28:38;5.10;;;4.60;;
5129;SDS011;2583;50.946;6.954;2023-10-08T07:31:15;8.57;;;4.50;;
5129;SDS011;2583;50.946;6.954;2023-10-08T07:33:43;6.93;;;4.83;;
5129;SDS011;2583;50.946;6.954;2023-10-08T07:36:12;4.67;;;4.27;;
5129;SDS011;2583;50.946;6.954;2023-10-08T07:38:41;6.77;;;4.63;;
5129;SDS011;2583;50.946;6.954;2023-10-08T07:41:11;9.77;;;4.47;;
5129;SDS011;2583;50.946;6.954;2023-10-08T07:43:41;5.50;;;4.13;;
5129;SDS011;2583;50.946;6.954;2023-10-08T07:46:08;7.50;;;4.40;;
5129;SDS011;2583;50.946;6.954;2023-10-08T07:48:36;11.50;;;4.40;;
5129;SDS011;2583;50.946;6.954;2023-10-08T07:51:09;8.07;;;4.70;;
5129;SDS011;2583;50.946;6.954;2023-10-08T07:53:35;6.70;;;3.90;;
5129;SDS011;2583;50.946;6.954;2023-10-08T07:56:08;11.90;;;5.13;;
5129;SDS011;2583;50.946;6.954;2023-10-08T07:58:35;6.70;;;4.77;;
5129;SDS011;2583;50.946;6.954;2023-10-08T08:01:03;5.93;;;4.30;;
5129;SDS011;2583;50.946;6.954;2023-10-08T08:03:36;6.27;;;4.10;;
5129;SDS011;2583;50.946;6.954;2023-10-08T08:06:04;8.20;;;4.90;;
5129;SDS011;2583;50.946;6.954;2023-10-08T08:08:33;14.23;;;4.47;;
5129;SDS011;2583;50.946;6.954;2023-10-08T08:11:00;5.63;;;4.70;;
5129;SDS011;2583;50.946;6.954;2023-10-08T08:13:38;6.87;;;4.77;;
5129;SDS011;2583;50.946;6.954;2023-10-08T08:16:10;6.60;;;5.70;;
5129;SDS011;2583;50.946;6.954;2023-10-08T08:18:47;8.20;;;5.50;;
5129;SDS011;2583;50.946;6.954;2023-10-08T08:21:25;7.90;;;3.93;;
5129;SDS011;2583;50.946;6.954;2023-10-08T08:23:52;5.83;;;4.70;;
5129;SDS011;2583;50.946;6.954;2023-10-08T08:26:30;7.63;;;4.23;;
5129;SDS011;2583;50.946;6.954;2023-10-08T08:29:06;5.27;;;4.63;;
5129;SDS011;2583;50.946;6.954;2023-10-08T08:31:41;4.40;;;4.00;;
5129;SDS011;2583;50.946;6.954;2023-10-08T08:34:12;6.77;;;4.40;;
5129;SDS011;2583;50.946;6.954;2023-10-08T08:36:45;7.40;;;5.27;;
5129;SDS011;2583;50.946;6.954;2023-10-08T08:39:12;6.53;;;4.60;;
5129;SDS011;2583;50.946;6.954;2023-10-08T08:41:59;10.53;;;4.53;;
5129;SDS011;2583;50.946;6.954;2023-10-08T08:44:27;6.47;;;5.50;;
5129;SDS011;2583;50.946;6.954;2023-10-08T08:46:58;7.20;;;5.13;;
5129;SDS011;2583;50.946;6.954;2023-10-08T08:49:32;6.97;;;5.40;;
5129;SDS011;2583;50.946;6.954;2023-10-08T08:52:03;8.93;;;5.20;;
5129;SDS011;2583;50.946;6.954;2023-10-08T08:54:30;8.03;;;4.67;;
5129;SDS011;2583;50.946;6.954;2023-10-08T08:56:57;5.90;;;4.77;;
5129;SDS011;2583;50.946;6.954;2023-10-08T08:59:26;7.73;;;4.73;;
5129;SDS011;2583;50.946;6.954;2023-10-08T09:01:57;9.63;;;5.50;;
5129;SDS011;2583;50.946;6.954;2023-10-08T09:04:32;7.80;;;4.80;;
5129;SDS011;2583;50.946;6.954;2023-10-08T09:06:59;6.33;;;5.00;;
5129;SDS011;2583;50.946;6.954;2023-10-08T09:09:33;10.00;;;4.67;;
5129;SDS011;2583;50.946;6.954;2023-10-08T09:12:07;8.30;;;4.97;;
5129;SDS011;2583;50.946;6.954;2023-10-08T09:14:37;15.67;;;5.20;;
5129;SDS011;2583;50.946;6.954;2023-10-08T09:17:04;6.47;;;5.63;;
5129;SDS011;2583;50.946;6.954;2023-10-08T09:19:38;9.97;;;5.40;;
5129;SDS011;2583;50.946;6.954;2023-10-08T09:22:11;10.50;;;5.90;;
5129;SDS011;2583;50.946;6.954;2023-10-08T09:24:39;10.33;;;5.63;;
5129;SDS011;2583;50.946;6.954;2023-10-08T09:27:08;10.10;;;5.43;;
5129;SDS011;2583;50.946;6.954;2023-10-08T09:29:41;16.27;;;6.93;;
5129;SDS011;2583;50.946;6.954;2023-10-08T09:32:09;12.93;;;6.20;;
5129;SDS011;2583;50.946;6.954;2023-10-08T09:34:37;10.27;;;6.47;;
5129;SDS011;2583;50.946;6.954;2023-10-08T09:37:04;17.40;;;7.60;;
5129;SDS011;2583;50.946;6.954;2023-10-08T09:39:31;11.67;;;6.37;;
5129;SDS011;2583;50.946;6.954;2023-10-08T09:42:01;16.43;;;6.70;;
5129;SDS011;2583;50.946;6.954;2023-10-08T09:44:33;11.03;;;6.73;;
5129;SDS011;2583;50.946;6.954;2023-10-08T09:49:36;17.70;;;6.23;;
5129;SDS011;2583;50.946;6.954;2023-10-08T09:52:14;15.17;;;6.30;;
5129;SDS011;2583;50.946;6.954;2023-10-08T09:57:30;20.47;;;9.40;;
5129;SDS011;2583;50.946;6.954;2023-10-08T09:59:56;14.67;;;7.17;;
5129;SDS011;2583;50.946;6.954;2023-10-08T10:02:24;18.13;;;6.23;;
5129;SDS011;2583;50.946;6.954;2023-10-08T10:04:54;15.73;;;6.87;;
5129;SDS011;2583;50.946;6.954;2023-10-08T10:07:21;13.87;;;6.17;;
5129;SDS011;2583;50.946;6.954;2023-10-08T10:09:51;15.80;;;7.13;;
5129;SDS011;2583;50.946;6.954;2023-10-08T10:12:25;15.17;;;7.30;;
5129;SDS011;2583;50.946;6.954;2023-10-08T10:14:53;14.70;;;6.30;;
5129;SDS011;2583;50.946;6.954;2023-10-08T10:17:22;13.27;;;8.00;;
5129;SDS011;2583;50.946;6.954;2023-10-08T10:20:09;19.93;;;6.87;;
5129;SDS011;2583;50.946;6.954;2023-10-08T10:22:41;11.73;;;7.30;;
5129;SDS011;2583;50.946;6.954;2023-10-08T10:25:10;21.67;;;8.90;;
5129;SDS011;2583;50.946;6.954;2023-10-08T10:30:22;18.63;;;9.40;;
5129;SDS011;2583;50.946;6.954;2023-10-08T10:32:53;23.60;;;8.83;;
5129;SDS011;2583;50.946;6.954;2023-10-08T10:35:21;19.10;;;9.20;;
5129;SDS011;2583;50.946;6.954;2023-10-08T10:37:49;14.60;;;7.00;;
5129;SDS011;2583;50.946;6.954;2023-10-08T10:40:24;12.50;;;6.93;;
5129;SDS011;2583;50.946;6.954;2023-10-08T10:43:08;20.03;;;7.47;;
5129;SDS011;2583;50.946;6.954;2023-10-08T10:45:35;10.83;;;7.07;;
5129;SDS011;2583;50.946;6.954;2023-10-08T10:48:03;14.60;;;8.43;;
5129;SDS011;2583;50.946;6.954;2023-10-08T10:50:42;19.10;;;7.80;;
5129;SDS011;2583;50.946;6.954;2023-10-08T10:53:35;13.03;;;7.33;;
5129;SDS011;2583;50.946;6.954;2023-10-08T10:56:24;19.90;;;8.10;;
5129;SDS011;2583;50.946;6.954;2023-10-08T10:59:00;19.17;;;8.27;;
5129;SDS011;2583;50.946;6.954;2023-10-08T11:01:44;19.03;;;8.10;;
5129;SDS011;2583;50.946;6.954;2023-10-08T11:04:14;13.30;;;8.03;;
5129;SDS011;2583;50.946;6.954;2023-10-08T11:06:47;20.57;;;7.10;;
5129;SDS011;2583;50.946;6.954;2023-10-08T11:09:17;8.27;;;6.73;;
5129;SDS011;2583;50.946;6.954;2023-10-08T11:12:02;17.63;;;8.40;;
5129;SDS011;2583;50.946;6.954;2023-10-08T11:14:40;15.53;;;7.93;;
5129;SDS011;2583;50.946;6.954;2023-10-08T11:17:15;24.27;;;7.83;;
5129;SDS011;2583;50.946;6.954;2023-10-08T11:19:44;16.80;;;8.30;;
5129;SDS011;2583;50.946;6.954;2023-10-08T11:22:12;13.90;;;8.13;;
5129;SDS011;2583;50.946;6.954;2023-10-08T11:24:43;16.33;;;7.10;;
5129;SDS011;2583;50.946;6.954;2023-10-08T11:27:15;15.77;;;7.50;;
5129;SDS011;2583;50.946;6.954;2023-10-08T11:29:45;19.40;;;8.60;;
5129;SDS011;2583;50.946;6.954;2023-10-08T11:32:23;22.53;;;8.73;;
5129;SDS011;2583;50.946;6.954;2023-10-08T11:34:55;20.60;;;9.10;;
5129;SDS011;2583;50.946;6.954;2023-10-08T11:37:30;12.37;;;8.40;;
5129;SDS011;2583;50.946;6.954;2023-10-08T11:40:02;19.67;;;9.33;;
5129;SDS011;2583;50.946;6.954;2023-10-08T11:42:44;21.10;;;11.20;;
5129;SDS011;2583;50.946;6.954;2023-10-08T11:45:11;20.37;;;9.40;;
5129;SDS011;2583;50.946;6.954;2023-10-08T11:47:47;19.47;;;8.53;;
5129;SDS011;2583;50.946;6.954;2023-10-08T11:50:15;14.63;;;8.47;;
5129;SDS011;2583;50.946;6.954;2023-10-08T11:52:46;15.33;;;7.60;;
5129;SDS011;2583;50.946;6.954;2023-10-08T11:55:13;19.87;;;9.80;;
5129;SDS011;2583;50.946;6.954;2023-10-08T11:57:52;18.30;;;9.67;;
5129;SDS011;2583;50.946;6.954;2023-10-08T12:00:20;25.03;;;9.10;;
5129;SDS011;2583;50.946;6.954;2023-10-08T12:02:58;22.97;;;10.27;;
5129;SDS011;2583;50.946;6.954;2023-10-08T12:05:28;19.03;;;10.20;;
5129;SDS011;2583;50.946;6.954;2023-10-08T12:07:56;22.63;;;9.57;;
5129;SDS011;2583;50.946;6.954;2023-10-08T12:10:24;21.80;;;9.17;;
5129;SDS011;2583;50.946;6.954;2023-10-08T12:12:52;16.60;;;9.40;;
5129;SDS011;2583;50.946;6.954;2023-10-08T12:15:22;20.73;;;8.60;;
5129;SDS011;2583;50.946;6.954;2023-10-08T12:17:53;16.47;;;8.97;;
5129;SDS011;2583;50.946;6.954;2023-10-08T12:20:46;26.17;;;13.30;;
5129;SDS011;2583;50.946;6.954;2023-10-08T12:23:14;21.67;;;9.87;;
5129;SDS011;2583;50.946;6.954;2023-10-08T12:25:57;24.27;;;9.63;;
5129;SDS011;2583;50.946;6.954;2023-10-08T12:28:26;22.37;;;10.27;;
5129;SDS011;2583;50.946;6.954;2023-10-08T12:30:54;19.87;;;10.10;;
5129;SDS011;2583;50.946;6.954;2023-10-08T12:33:22;19.57;;;10.63;;
5129;SDS011;2583;50.946;6.954;2023-10-08T12:35:53;16.53;;;9.80;;
5129;SDS011;2583;50.946;6.954;2023-10-08T12:38:22;21.67;;;11.60;;
5129;SDS011;2583;50.946;6.954;2023-10-08T12:40:50;21.37;;;10.83;;
5129;SDS011;2583;50.946;6.954;2023-10-08T12:43:21;21.83;;;9.93;;
5129;SDS011;2583;50.946;6.954;2023-10-08T12:45:49;21.07;;;12.80;;
5129;SDS011;2583;50.946;6.954;2023-10-08T12:48:22;25.30;;;11.90;;
5129;SDS011;2583;50.946;6.954;2023-10-08T12:50:50;20.20;;;12.13;;
5129;SDS011;2583;50.946;6.954;2023-10-08T12:53:27;18.43;;;11.90;;
5129;SDS011;2583;50.946;6.954;2023-10-08T12:56:03;24.10;;;11.97;;
5129;SDS011;2583;50.946;6.954;2023-10-08T12:58:34;17.17;;;10.90;;
5129;SDS011;2583;50.946;6.954;2023-10-08T13:01:10;18.63;;;10.90;;
5129;SDS011;2583;50.946;6.954;2023-10-08T13:03:37;19.30;;;11.83;;
5129;SDS011;2583;50.946;6.954;2023-10-08T13:06:09;35.87;;;19.30;;
5129;SDS011;2583;50.946;6.954;2023-10-08T13:08:49;19.07;;;11.07;;
5129;SDS011;2583;50.946;6.954;2023-10-08T13:11:19;25.93;;;12.00;;
5129;SDS011;2583;50.946;6.954;2023-10-08T13:13:50;20.70;;;11.73;;
5129;SDS011;2583;50.946;6.954;2023-10-08T13:16:19;21.70;;;11.30;;
5129;SDS011;2583;50.946;6.954;2023-10-08T13:18:48;23.40;;;12.33;;
5129;SDS011;2583;50.946;6.954;2023-10-08T13:21:15;21.03;;;10.90;;
5129;SDS011;2583;50.946;6.954;2023-10-08T13:23:42;30.73;;;10.83;;
5129;SDS011;2583;50.946;6.954;2023-10-08T13:26:09;18.50;;;12.30;;
5129;SDS011;2583;50.946;6.954;2023-10-08T13:28:43;24.77;;;11.40;;
5129;SDS011;2583;50.946;6.954;2023-10-08T13:31:10;17.93;;;11.60;;
5129;SDS011;2583;50.946;6.954;2023-10-08T13:33:38;19.20;;;11.40;;
5129;SDS011;2583;50.946;6.954;2023-10-08T13:36:06;26.67;;;11.20;;
5129;SDS011;2583;50.946;6.954;2023-10-08T13:38:44;23.27;;;12.43;;
5129;SDS011;2583;50.946;6.954;2023-10-08T13:41:12;25.73;;;13.17;;
5129;SDS011;2583;50.946;6.954;2023-10-08T13:43:44;18.67;;;11.70;;
5129;SDS011;2583;50.946;6.954;2023-10-08T13:46:15;29.90;;;12.60;;
5129;SDS011;2583;50.946;6.954;2023-10-08T13:48:44;19.50;;;11.07;;
5129;SDS011;2583;50.946;6.954;2023-10-08T13:51:15;19.73;;;11.43;;
5129;SDS011;2583;50.946;6.954;2023-10-08T13:53:55;24.90;;;13.70;;
5129;SDS011;2583;50.946;6.954;2023-10-08T13:56:27;25.10;;;11.60;;
5129;SDS011;2583;50.946;6.954;2023-10-08T13:59:00;23.93;;;12.50;;
5129;SDS011;2583;50.946;6.954;2023-10-08T14:01:38;19.30;;;12.20;;
5129;SDS011;2583;50.946;6.954;2023-10-08T14:04:09;23.37;;;11.43;;
5129;SDS011;2583;50.946;6.954;2023-10-08T14:06:37;19.40;;;11.20;;
5129;SDS011;2583;50.946;6.954;2023-10-08T14:09:07;24.90;;;11.40;;
5129;SDS011;2583;50.946;6.954;2023-10-08T14:11:38;21.67;;;13.10;;
5129;SDS011;2583;50.946;6.954;2023-10-08T14:14:05;26.90;;;12.00;;
5129;SDS011;2583;50.946;6.954;2023-10-08T14:16:38;21.10;;;11.60;;
5129;SDS011;2583;50.946;6.954;2023-10-08T14:19:13;20.23;;;11.30;;
5129;SDS011;2583;50.946;6.954;2023-10-08T14:21:41;23.93;;;11.83;;
5129;SDS011;2583;50.946;6.954;2023-10-08T14:24:31;21.13;;;12.50;;
5129;SDS011;2583;50.946;6.954;2023-10-08T14:27:01;15.93;;;11.60;;
5129;SDS011;2583;50.946;6.954;2023-10-08T14:29:39;28.20;;;12.37;;
5129;SDS011;2583;50.946;6.954;2023-10-08T14:32:07;17.07;;;11.33;;
5129;SDS011;2583;50.946;6.954;2023-10-08T14:34:37;25.03;;;13.20;;
5129;SDS011;2583;50.946;6.954;2023-10-08T14:37:13;20.80;;;13.13;;
5129;SDS011;2583;50.946;6.954;2023-10-08T14:39:59;18.97;;;12.17;;
5129;SDS011;2583;50.946;6.954;2023-10-08T14:42:44;22.43;;;12.17;;
5129;SDS011;2583;50.946;6.954;2023-10-08T14:45:29;21.97;;;12.83;;
5129;SDS011;2583;50.946;6.954;2023-10-08T14:48:02;25.77;;;12.87;;
5129;SDS011;2583;50.946;6.954;2023-10-08T14:50:34;21.80;;;11.97;;
5129;SDS011;2583;50.946;6.954;2023-10-08T14:53:01;22.60;;;11.87;;
5129;SDS011;2583;50.946;6.954;2023-10-08T14:55:31;26.33;;;12.30;;
5129;SDS011;2583;50.946;6.954;2023-10-08T14:58:02;18.70;;;12.40;;
5129;SDS011;2583;50.946;6.954;2023-10-08T15:00:34;26.63;;;12.33;;
5129;SDS011;2583;50.946;6.954;2023-10-08T15:03:06;23.97;;;13.00;;
5129;SDS011;2583;50.946;6.954;2023-10-08T15:05:33;18.63;;;11.93;;
5129;SDS011;2583;50.946;6.954;2023-10-08T15:08:03;25.57;;;11.73;;
5129;SDS011;2583;50.946;6.954;2023-10-08T15:10:36;25.33;;;11.63;;
5129;SDS011;2583;50.946;6.954;2023-10-08T15:13:03;13.27;;;10.13;;
5129;SDS011;2583;50.946;6.954;2023-10-08T15:15:30;25.20;;;11.57;;
5129;SDS011;2583;50.946;6.954;2023-10-08T15:18:00;22.07;;;11.30;;
5129;SDS011;2583;50.946;6.954;2023-10-08T15:20:28;21.40;;;11.17;;
5129;SDS011;2583;50.946;6.954;2023-10-08T15:22:58;22.23;;;11.83;;
5129;SDS011;2583;50.946;6.954;2023-10-08T15:25:25;19.60;;;11.70;;
5129;SDS011;2583;50.946;6.954;2023-10-08T15:27:52;22.40;;;12.97;;
5129;SDS011;2583;50.946;6.954;2023-10-08T15:30:19;20.53;;;11.70;;
5129;SDS011;2583;50.946;6.954;2023-10-08T15:32:47;19.77;;;12.47;;
5129;SDS011;2583;50.946;6.954;2023-10-08T15:35:16;20.50;;;10.63;;
5129;SDS011;2583;50.946;6.954;2023-10-08T15:37:50;17.97;;;11.33;;
5129;SDS011;2583;50.946;6.954;2023-10-08T15:40:18;18.93;;;11.67;;
5129;SDS011;2583;50.946;6.954;2023-10-08T15:42:52;14.53;;;11.10;;
5129;SDS011;2583;50.946;6.954;2023-10-08T15:45:21;22.23;;;12.97;;